Gladstone, Queensland

5:35 PM AEST on February 08, 2016 (GMT +1000)
Gladstone | | Change Station
CLOSE
Current Station
Airport
Location: Gladstone Airport,
Elevation: 62 ft
Nearby Weather Stations

Elev 62 ft 23.87 °S, 151.22 °E | Updated 35 minutes ago

Clear
Clear
82 °F
Feels Like 85 °F
N
20
Wind Variable Wind from East

Today
High -- | Low -- °F
--% Chance of Precip.
Yesterday
High -- | Low -- °F
Precip. -- in
Pressure 29.83 in
Visibility 6.2 miles
Clouds
Heat Index 85 °F
Dew Point 66 °F
Humidity 58%
Rainfall 0.00 in
Snow Depth Not available.
5:37 AM 6:40 PM
Waning Crescent, 0% visible
METAR YGLA 080700Z AUTO 10017KT 9999 // NCD 28/19 Q1010
Pressure 29.83 in
Visibility 6.2 miles
Clouds
Heat Index 85 °F
Dew Point 66 °F
Humidity 58%
Rainfall 0.00 in
Snow Depth Not available.
5:37 AM 6:40 PM
Waning Crescent, 0% visible
METAR YGLA 080700Z AUTO 10017KT 9999 // NCD 28/19 Q1010

10-Day Weather Forecast

Almanac

Astronomy

Feb. 08, 2016 Rise Set
Actual Time
Civil Twilight
Nautical Twilight
Astronomical Twilight
Moon
Length of Visible Light
Length of Day
Tomorrow will be .
, % of the Moon is Illuminated

Today's Extremes

Country Highs Country Lows

Community

WunderPhotos

Upload Photos

1,891,394 photos uploaded!

WunderBlog® & News

Nearby

Air Quality

  Air Quality AQ Index Pollutant
Not available.

Snow Depth

Station Depth Elevation

Earthquake Activity

City Distance Mag. Time & Date
Minimum magnitude displayed is 2.5.

Coastal Water Temperatures

Place Temperature

Stations

Nearby Weather Stations

Station Location Temp. Windchill Dew Point Humidity Wind Precip. Elev Updated Type